This is the latest recevied weather packets stored in our database for station/object M0UPS-13. If no packets are shown the sender has not sent any weather packets the latest 10 day(s).
| Time | Temp. | Humidity | Pressure | Rain* | Wind** | Luminosity | Snow |
|---|---|---|---|---|---|---|---|
| 1777812903 | 19.44° C | 58% | 1009.8 hPa | 0 mm | - | 649 W/m² | - |
| 1777812602 | 19.44° C | 59% | 1009.7 hPa | 0 mm | - | 745 W/m² | - |
| 1777812302 | 19.44° C | 60% | 1009.7 hPa | 0 mm | - | 533 W/m² | - |
| 1777812002 | 18.89° C | 60% | 1009.9 hPa | 0 mm | - | 673 W/m² | - |
| 1777811702 | 18.33° C | 60% | 1009.7 hPa | 0 mm | - | 649 W/m² | - |
| 1777811402 | 18.33° C | 61% | 1009.7 hPa | 0 mm | - | 477 W/m² | - |
| 1777811102 | 18.33° C | 60% | 1009.6 hPa | 0 mm | - | 255 W/m² | - |
| 1777810802 | 18.89° C | 59% | 1009.7 hPa | 0 mm | - | 386 W/m² | - |
| 1777810503 | 19.44° C | 58% | 1009.9 hPa | 0 mm | - | 838 W/m² | - |
| 1777810202 | 18.89° C | 60% | 1009.7 hPa | 0 mm | - | 852 W/m² | - |
| 1777809902 | 18.89° C | 59% | 1009.8 hPa | 0 mm | - | 667 W/m² | - |
| 1777809602 | 18.89° C | 61% | 1009.9 hPa | 0 mm | - | 295 W/m² | - |
| 1777809302 | 18.89° C | 58% | 1009.9 hPa | 0 mm | - | 617 W/m² | - |
| 1777809002 | 18.89° C | 58% | 1009.8 hPa | 0 mm | - | 701 W/m² | - |
| 1777808702 | 18.89° C | 58% | 1009.9 hPa | 0 mm | - | 805 W/m² | - |
| 1777808402 | 18.89° C | 59% | 1009.8 hPa | 0 mm | - | 760 W/m² | - |
| 1777808102 | 19.44° C | 58% | 1009.9 hPa | 0 mm | - | 911 W/m² | - |
| 1777807802 | 18.33° C | 60% | 1009.9 hPa | 0 mm | - | 886 W/m² | - |
| 1777807502 | 18.89° C | 60% | 1010 hPa | 0 mm | - | 575 W/m² | - |
| 1777807202 | 18.33° C | 63% | 1010.1 hPa | 0 mm | - | 372 W/m² | - |
| 1777806902 | 18.33° C | 60% | 1009.9 hPa | 0 mm | - | 839 W/m² | - |
| 1777806602 | 17.78° C | 62% | 1010 hPa | 0 mm | - | 894 W/m² | - |
| 1777806303 | 17.22° C | 64% | 1010.1 hPa | 0 mm | - | 321 W/m² | - |
| 1777806002 | 17.78° C | 64% | 1010.1 hPa | 0 mm | - | 211 W/m² | - |
| 1777805702 | 18.89° C | 61% | 1010 hPa | 0 mm | - | 346 W/m² | - |
* Rain latest hour (hover to see other rain measurements)
** Current wind speed in m/s (hover to see current wind gust speed)